KCCR

Buchanan Field Airport

Concord, California, USA
METAR KCCR 171353Z AUTO 19004KT 10SM CLR 11/08 A3014 RMK AO2 SLP193 T01060083
Observed Flight Rules
Dec-17 @ 13:53 UTC (37 minutes ago) Visual Flight Rules
Wind Visibility Clouds
190° at 4 knots 10 miles
  • Clear skies
Temperatures Readings
Current 11°C / 52°F
Dewpoint 8°C / 46°F
Humidity 82%
Altimeter 30.14" Hg
Pressure 1019.3 hPa
Elevation 11
METAR KCCR 171353Z AUTO 19004KT 10SM CLR 11/08 A3014 RMK AO2 SLP193 T01060083
Observed Flight Rules
Dec-17 @ 13:53 UTC
(37 minutes ago)
VFR
Wind Visibility
190° at 4 knots 10 miles
Clouds
  • Clear skies
Temperature Dewpoint
11°C / 52°F 8°C / 46°F
Humidity Altimeter Pressure
82% 30.14" Hg 1019.3 hPa